sensor_id;sensor_type;location;lat;lon;timestamp;temperature;humidity
74511;DHT22;62991;50.040;18.400;2023-08-21T00:02:49;25.80;61.90
74511;DHT22;62991;50.040;18.400;2023-08-21T00:05:49;25.80;61.60
74511;DHT22;62991;50.040;18.400;2023-08-21T00:08:50;25.80;61.60
74511;DHT22;62991;50.040;18.400;2023-08-21T00:11:50;25.70;62.50
74511;DHT22;62991;50.040;18.400;2023-08-21T00:14:51;25.70;62.60
74511;DHT22;62991;50.040;18.400;2023-08-21T00:17:52;25.70;62.50
74511;DHT22;62991;50.040;18.400;2023-08-21T00:20:52;25.60;62.90
74511;DHT22;62991;50.040;18.400;2023-08-21T00:23:53;25.60;62.70
74511;DHT22;62991;50.040;18.400;2023-08-21T00:26:54;25.60;63.20
74511;DHT22;62991;50.040;18.400;2023-08-21T00:29:54;25.60;63.70
74511;DHT22;62991;50.040;18.400;2023-08-21T00:32:55;25.60;64.00
74511;DHT22;62991;50.040;18.400;2023-08-21T00:35:56;25.60;63.90
74511;DHT22;62991;50.040;18.400;2023-08-21T00:38:56;25.60;64.00
74511;DHT22;62991;50.040;18.400;2023-08-21T00:41:57;25.60;63.70
74511;DHT22;62991;50.040;18.400;2023-08-21T00:44:58;25.50;63.70
74511;DHT22;62991;50.040;18.400;2023-08-21T00:47:58;25.50;63.70
74511;DHT22;62991;50.040;18.400;2023-08-21T00:50:59;25.50;63.80
74511;DHT22;62991;50.040;18.400;2023-08-21T00:54:00;25.50;63.90
74511;DHT22;62991;50.040;18.400;2023-08-21T00:57:01;25.40;63.90
74511;DHT22;62991;50.040;18.400;2023-08-21T01:00:04;25.40;64.00
74511;DHT22;62991;50.040;18.400;2023-08-21T01:03:05;25.30;64.00
74511;DHT22;62991;50.040;18.400;2023-08-21T01:06:05;25.30;64.10
74511;DHT22;62991;50.040;18.400;2023-08-21T01:09:25;25.30;64.30
74511;DHT22;62991;50.040;18.400;2023-08-21T01:12:47;25.30;64.60
74511;DHT22;62991;50.040;18.400;2023-08-21T01:15:51;25.30;64.40
74511;DHT22;62991;50.040;18.400;2023-08-21T01:18:54;25.30;64.70
74511;DHT22;62991;50.040;18.400;2023-08-21T01:21:55;25.20;64.60
74511;DHT22;62991;50.040;18.400;2023-08-21T01:24:56;24.80;65.40
74511;DHT22;62991;50.040;18.400;2023-08-21T01:27:57;24.70;66.00
74511;DHT22;62991;50.040;18.400;2023-08-21T01:31:08;24.50;66.70
74511;DHT22;62991;50.040;18.400;2023-08-21T01:34:13;24.50;67.20
74511;DHT22;62991;50.040;18.400;2023-08-21T01:37:16;24.60;66.80
74511;DHT22;62991;50.040;18.400;2023-08-21T01:40:23;24.70;66.70
74511;DHT22;62991;50.040;18.400;2023-08-21T01:43:24;24.80;66.50
74511;DHT22;62991;50.040;18.400;2023-08-21T01:46:25;24.70;66.90
74511;DHT22;62991;50.040;18.400;2023-08-21T01:49:25;24.80;66.90
74511;DHT22;62991;50.040;18.400;2023-08-21T01:52:26;24.70;66.90
74511;DHT22;62991;50.040;18.400;2023-08-21T01:55:27;24.70;66.70
74511;DHT22;62991;50.040;18.400;2023-08-21T01:58:27;24.70;66.90
74511;DHT22;62991;50.040;18.400;2023-08-21T02:01:28;24.70;66.80
74511;DHT22;62991;50.040;18.400;2023-08-21T02:04:29;24.70;66.80
74511;DHT22;62991;50.040;18.400;2023-08-21T02:07:29;24.70;67.00
74511;DHT22;62991;50.040;18.400;2023-08-21T02:10:30;24.70;66.80
74511;DHT22;62991;50.040;18.400;2023-08-21T02:13:30;24.70;66.80
74511;DHT22;62991;50.040;18.400;2023-08-21T02:16:33;24.70;66.70
74511;DHT22;62991;50.040;18.400;2023-08-21T02:19:33;24.60;67.00
74511;DHT22;62991;50.040;18.400;2023-08-21T02:22:34;24.60;66.80
74511;DHT22;62991;50.040;18.400;2023-08-21T02:25:35;24.50;67.20
74511;DHT22;62991;50.040;18.400;2023-08-21T02:28:36;24.50;67.30
74511;DHT22;62991;50.040;18.400;2023-08-21T02:31:36;24.50;67.30
74511;DHT22;62991;50.040;18.400;2023-08-21T02:34:37;24.40;67.20
74511;DHT22;62991;50.040;18.400;2023-08-21T02:37:39;24.30;67.20
74511;DHT22;62991;50.040;18.400;2023-08-21T02:40:40;24.30;67.40
74511;DHT22;62991;50.040;18.400;2023-08-21T02:43:41;24.20;67.90
74511;DHT22;62991;50.040;18.400;2023-08-21T02:46:41;24.20;67.90
74511;DHT22;62991;50.040;18.400;2023-08-21T02:49:42;24.30;67.80
74511;DHT22;62991;50.040;18.400;2023-08-21T02:52:43;24.30;67.60
74511;DHT22;62991;50.040;18.400;2023-08-21T02:55:43;24.30;67.80
74511;DHT22;62991;50.040;18.400;2023-08-21T02:58:44;24.20;67.90
74511;DHT22;62991;50.040;18.400;2023-08-21T03:01:44;24.20;68.20
74511;DHT22;62991;50.040;18.400;2023-08-21T03:04:45;24.20;68.00
74511;DHT22;62991;50.040;18.400;2023-08-21T03:07:46;24.20;67.90
74511;DHT22;62991;50.040;18.400;2023-08-21T03:10:47;24.10;67.90
74511;DHT22;62991;50.040;18.400;2023-08-21T03:13:47;24.10;68.60
74511;DHT22;62991;50.040;18.400;2023-08-21T03:16:48;24.10;68.10
74511;DHT22;62991;50.040;18.400;2023-08-21T03:19:49;24.20;68.20
74511;DHT22;62991;50.040;18.400;2023-08-21T03:22:49;24.20;68.10
74511;DHT22;62991;50.040;18.400;2023-08-21T03:25:53;24.20;68.00
74511;DHT22;62991;50.040;18.400;2023-08-21T03:28:53;24.10;67.80
74511;DHT22;62991;50.040;18.400;2023-08-21T03:31:54;24.10;68.40
74511;DHT22;62991;50.040;18.400;2023-08-21T03:34:55;24.10;68.30
74511;DHT22;62991;50.040;18.400;2023-08-21T03:37:56;24.10;67.90
74511;DHT22;62991;50.040;18.400;2023-08-21T03:40:57;24.00;67.90
74511;DHT22;62991;50.040;18.400;2023-08-21T03:43:58;23.70;68.90
74511;DHT22;62991;50.040;18.400;2023-08-21T03:46:58;23.40;69.70
74511;DHT22;62991;50.040;18.400;2023-08-21T03:49:59;23.30;70.10
74511;DHT22;62991;50.040;18.400;2023-08-21T03:53:00;23.20;70.60
74511;DHT22;62991;50.040;18.400;2023-08-21T03:56:01;23.20;70.50
74511;DHT22;62991;50.040;18.400;2023-08-21T03:59:02;23.30;70.20
74511;DHT22;62991;50.040;18.400;2023-08-21T04:02:02;23.30;69.70
74511;DHT22;62991;50.040;18.400;2023-08-21T04:05:03;23.30;70.00
74511;DHT22;62991;50.040;18.400;2023-08-21T04:08:04;23.30;70.40
74511;DHT22;62991;50.040;18.400;2023-08-21T04:11:06;23.40;70.00
74511;DHT22;62991;50.040;18.400;2023-08-21T04:14:07;23.30;69.70
74511;DHT22;62991;50.040;18.400;2023-08-21T04:17:07;23.20;70.50
74511;DHT22;62991;50.040;18.400;2023-08-21T04:20:08;23.40;69.80
74511;DHT22;62991;50.040;18.400;2023-08-21T04:23:09;23.30;70.00
74511;DHT22;62991;50.040;18.400;2023-08-21T04:26:10;23.30;69.80
74511;DHT22;62991;50.040;18.400;2023-08-21T04:29:10;23.40;69.80
74511;DHT22;62991;50.040;18.400;2023-08-21T04:32:11;23.50;69.70
74511;DHT22;62991;50.040;18.400;2023-08-21T04:35:12;23.60;69.60
74511;DHT22;62991;50.040;18.400;2023-08-21T04:38:13;23.60;69.50
74511;DHT22;62991;50.040;18.400;2023-08-21T04:41:14;23.60;69.10
74511;DHT22;62991;50.040;18.400;2023-08-21T04:44:15;23.40;69.60
74511;DHT22;62991;50.040;18.400;2023-08-21T04:47:25;23.30;69.60
74511;DHT22;62991;50.040;18.400;2023-08-21T04:50:28;23.20;69.90
74511;DHT22;62991;50.040;18.400;2023-08-21T04:53:29;23.40;70.10
74511;DHT22;62991;50.040;18.400;2023-08-21T04:56:30;23.50;69.10
74511;DHT22;62991;50.040;18.400;2023-08-21T04:59:31;23.40;69.70
74511;DHT22;62991;50.040;18.400;2023-08-21T05:02:31;23.50;69.30
74511;DHT22;62991;50.040;18.400;2023-08-21T05:05:32;23.40;69.60
74511;DHT22;62991;50.040;18.400;2023-08-21T05:08:33;23.50;69.60
74511;DHT22;62991;50.040;18.400;2023-08-21T05:11:34;23.50;69.90
74511;DHT22;62991;50.040;18.400;2023-08-21T05:14:35;23.80;68.90
74511;DHT22;62991;50.040;18.400;2023-08-21T05:17:35;23.70;68.70
74511;DHT22;62991;50.040;18.400;2023-08-21T05:20:36;23.70;68.90
74511;DHT22;62991;50.040;18.400;2023-08-21T05:23:37;23.60;69.40
74511;DHT22;62991;50.040;18.400;2023-08-21T05:26:38;23.60;69.20
74511;DHT22;62991;50.040;18.400;2023-08-21T05:29:39;23.70;68.90
74511;DHT22;62991;50.040;18.400;2023-08-21T05:32:39;23.70;68.60
74511;DHT22;62991;50.040;18.400;2023-08-21T05:35:41;23.70;68.60
74511;DHT22;62991;50.040;18.400;2023-08-21T05:38:41;23.80;68.80
74511;DHT22;62991;50.040;18.400;2023-08-21T05:41:42;23.90;68.60
74511;DHT22;62991;50.040;18.400;2023-08-21T05:44:43;24.00;69.10
74511;DHT22;62991;50.040;18.400;2023-08-21T05:47:43;24.10;68.10
74511;DHT22;62991;50.040;18.400;2023-08-21T05:50:44;24.00;68.20
74511;DHT22;62991;50.040;18.400;2023-08-21T05:53:45;24.00;69.10
74511;DHT22;62991;50.040;18.400;2023-08-21T05:56:45;24.20;68.30
74511;DHT22;62991;50.040;18.400;2023-08-21T05:59:46;24.10;68.40
74511;DHT22;62991;50.040;18.400;2023-08-21T06:02:47;23.80;68.90
74511;DHT22;62991;50.040;18.400;2023-08-21T06:05:48;23.30;70.20
74511;DHT22;62991;50.040;18.400;2023-08-21T06:08:48;23.10;71.10
74511;DHT22;62991;50.040;18.400;2023-08-21T06:11:49;23.40;71.00
74511;DHT22;62991;50.040;18.400;2023-08-21T06:14:50;23.60;69.00
74511;DHT22;62991;50.040;18.400;2023-08-21T06:17:51;23.50;69.20
74511;DHT22;62991;50.040;18.400;2023-08-21T06:20:51;23.70;69.30
74511;DHT22;62991;50.040;18.400;2023-08-21T06:23:53;23.80;68.80
74511;DHT22;62991;50.040;18.400;2023-08-21T06:26:54;23.90;69.00
74511;DHT22;62991;50.040;18.400;2023-08-21T06:29:55;24.10;68.20
74511;DHT22;62991;50.040;18.400;2023-08-21T06:32:56;24.10;67.60
74511;DHT22;62991;50.040;18.400;2023-08-21T06:35:56;24.00;67.60
74511;DHT22;62991;50.040;18.400;2023-08-21T06:38:57;24.00;67.80
74511;DHT22;62991;50.040;18.400;2023-08-21T06:41:58;24.10;67.90
74511;DHT22;62991;50.040;18.400;2023-08-21T06:45:00;24.00;68.20
74511;DHT22;62991;50.040;18.400;2023-08-21T06:48:01;24.10;68.40
74511;DHT22;62991;50.040;18.400;2023-08-21T06:51:02;24.10;68.00
74511;DHT22;62991;50.040;18.400;2023-08-21T06:54:03;24.10;68.20
74511;DHT22;62991;50.040;18.400;2023-08-21T06:57:04;24.10;68.60
74511;DHT22;62991;50.040;18.400;2023-08-21T07:00:06;24.10;69.00
74511;DHT22;62991;50.040;18.400;2023-08-21T07:03:06;24.10;68.40
74511;DHT22;62991;50.040;18.400;2023-08-21T07:06:07;24.10;68.20
74511;DHT22;62991;50.040;18.400;2023-08-21T07:09:08;24.10;68.60
74511;DHT22;62991;50.040;18.400;2023-08-21T07:12:09;24.30;68.40
74511;DHT22;62991;50.040;18.400;2023-08-21T07:15:10;24.40;68.00
74511;DHT22;62991;50.040;18.400;2023-08-21T07:18:10;24.40;67.80
74511;DHT22;62991;50.040;18.400;2023-08-21T07:21:11;24.50;67.40
74511;DHT22;62991;50.040;18.400;2023-08-21T07:24:12;24.60;67.70
74511;DHT22;62991;50.040;18.400;2023-08-21T07:27:12;24.70;67.30
74511;DHT22;62991;50.040;18.400;2023-08-21T07:30:16;24.80;67.20
74511;DHT22;62991;50.040;18.400;2023-08-21T07:33:18;24.80;67.40
74511;DHT22;62991;50.040;18.400;2023-08-21T07:36:18;24.80;66.90
74511;DHT22;62991;50.040;18.400;2023-08-21T07:39:19;24.70;67.30
74511;DHT22;62991;50.040;18.400;2023-08-21T07:42:20;24.80;67.50
74511;DHT22;62991;50.040;18.400;2023-08-21T07:45:20;24.90;67.30
74511;DHT22;62991;50.040;18.400;2023-08-21T07:48:21;25.10;67.20
74511;DHT22;62991;50.040;18.400;2023-08-21T07:51:22;25.20;67.20
74511;DHT22;62991;50.040;18.400;2023-08-21T07:54:22;25.40;67.40
74511;DHT22;62991;50.040;18.400;2023-08-21T07:57:24;25.40;66.70
74511;DHT22;62991;50.040;18.400;2023-08-21T08:00:25;25.40;66.40
74511;DHT22;62991;50.040;18.400;2023-08-21T08:03:25;25.50;66.80
74511;DHT22;62991;50.040;18.400;2023-08-21T08:06:26;25.50;66.50
74511;DHT22;62991;50.040;18.400;2023-08-21T08:09:27;25.60;66.70
74511;DHT22;62991;50.040;18.400;2023-08-21T08:12:27;25.70;66.80
74511;DHT22;62991;50.040;18.400;2023-08-21T08:15:28;25.90;66.60
74511;DHT22;62991;50.040;18.400;2023-08-21T08:18:28;26.00;65.40
74511;DHT22;62991;50.040;18.400;2023-08-21T08:21:29;26.10;66.30
74511;DHT22;62991;50.040;18.400;2023-08-21T08:24:30;26.20;64.60
74511;DHT22;62991;50.040;18.400;2023-08-21T08:27:31;26.30;65.00
74511;DHT22;62991;50.040;18.400;2023-08-21T08:30:31;26.30;64.60
74511;DHT22;62991;50.040;18.400;2023-08-21T08:33:32;26.30;64.50
74511;DHT22;62991;50.040;18.400;2023-08-21T08:36:33;26.30;64.60
74511;DHT22;62991;50.040;18.400;2023-08-21T08:39:33;26.30;64.30
74511;DHT22;62991;50.040;18.400;2023-08-21T08:42:35;26.50;65.70
74511;DHT22;62991;50.040;18.400;2023-08-21T08:45:36;26.60;63.60
74511;DHT22;62991;50.040;18.400;2023-08-21T08:48:38;26.70;63.10
74511;DHT22;62991;50.040;18.400;2023-08-21T08:51:40;26.80;62.50
74511;DHT22;62991;50.040;18.400;2023-08-21T08:54:42;26.80;62.10
74511;DHT22;62991;50.040;18.400;2023-08-21T08:57:43;26.80;61.60
74511;DHT22;62991;50.040;18.400;2023-08-21T09:00:43;26.90;61.90
74511;DHT22;62991;50.040;18.400;2023-08-21T09:03:44;26.90;61.50
74511;DHT22;62991;50.040;18.400;2023-08-21T09:06:45;26.90;61.80
74511;DHT22;62991;50.040;18.400;2023-08-21T09:09:47;26.80;62.00
74511;DHT22;62991;50.040;18.400;2023-08-21T09:12:50;26.80;62.00
74511;DHT22;62991;50.040;18.400;2023-08-21T09:15:53;26.90;62.90
74511;DHT22;62991;50.040;18.400;2023-08-21T09:18:56;27.10;62.00
74511;DHT22;62991;50.040;18.400;2023-08-21T09:21:57;27.30;62.20
74511;DHT22;62991;50.040;18.400;2023-08-21T09:25:06;27.50;62.70
74511;DHT22;62991;50.040;18.400;2023-08-21T09:28:08;27.60;61.90
74511;DHT22;62991;50.040;18.400;2023-08-21T09:31:10;27.70;61.40
74511;DHT22;62991;50.040;18.400;2023-08-21T09:34:12;27.80;61.10
74511;DHT22;62991;50.040;18.400;2023-08-21T09:37:12;27.80;60.60
74511;DHT22;62991;50.040;18.400;2023-08-21T09:40:15;27.90;60.60
74511;DHT22;62991;50.040;18.400;2023-08-21T09:43:16;28.00;60.40
74511;DHT22;62991;50.040;18.400;2023-08-21T09:46:23;28.20;60.30
74511;DHT22;62991;50.040;18.400;2023-08-21T09:49:24;28.40;60.40
74511;DHT22;62991;50.040;18.400;2023-08-21T09:52:26;28.50;60.10
74511;DHT22;62991;50.040;18.400;2023-08-21T09:55:27;28.60;60.50
74511;DHT22;62991;50.040;18.400;2023-08-21T09:58:30;28.60;59.30
74511;DHT22;62991;50.040;18.400;2023-08-21T10:01:33;28.50;59.50
74511;DHT22;62991;50.040;18.400;2023-08-21T10:04:34;28.50;59.40
74511;DHT22;62991;50.040;18.400;2023-08-21T10:07:36;28.40;59.50
74511;DHT22;62991;50.040;18.400;2023-08-21T10:10:38;28.30;59.50
74511;DHT22;62991;50.040;18.400;2023-08-21T10:13:40;28.20;60.10
74511;DHT22;62991;50.040;18.400;2023-08-21T10:16:41;28.10;60.90
74511;DHT22;62991;50.040;18.400;2023-08-21T10:19:51;28.00;61.70
74511;DHT22;62991;50.040;18.400;2023-08-21T10:23:01;28.10;61.90
74511;DHT22;62991;50.040;18.400;2023-08-21T10:26:06;28.00;61.90
74511;DHT22;62991;50.040;18.400;2023-08-21T10:29:07;28.00;61.70
74511;DHT22;62991;50.040;18.400;2023-08-21T10:32:08;28.10;62.00
74511;DHT22;62991;50.040;18.400;2023-08-21T10:35:14;28.30;62.40
74511;DHT22;62991;50.040;18.400;2023-08-21T10:38:17;28.40;61.20
74511;DHT22;62991;50.040;18.400;2023-08-21T10:41:26;28.70;61.00
74511;DHT22;62991;50.040;18.400;2023-08-21T10:44:46;28.70;60.60
74511;DHT22;62991;50.040;18.400;2023-08-21T10:47:57;28.80;61.10
74511;DHT22;62991;50.040;18.400;2023-08-21T10:51:01;28.80;60.60
74511;DHT22;62991;50.040;18.400;2023-08-21T10:54:13;28.80;60.40
74511;DHT22;62991;50.040;18.400;2023-08-21T10:57:14;28.70;60.70
74511;DHT22;62991;50.040;18.400;2023-08-21T11:00:17;28.80;60.40
74511;DHT22;62991;50.040;18.400;2023-08-21T11:03:18;28.70;60.70
74511;DHT22;62991;50.040;18.400;2023-08-21T11:06:19;28.50;61.30
74511;DHT22;62991;50.040;18.400;2023-08-21T11:09:19;28.50;61.80
74511;DHT22;62991;50.040;18.400;2023-08-21T11:12:22;28.40;61.80
74511;DHT22;62991;50.040;18.400;2023-08-21T11:15:24;28.70;61.50
74511;DHT22;62991;50.040;18.400;2023-08-21T11:18:32;28.90;61.30
74511;DHT22;62991;50.040;18.400;2023-08-21T11:21:33;29.00;61.30
74511;DHT22;62991;50.040;18.400;2023-08-21T11:24:41;28.90;61.40
74511;DHT22;62991;50.040;18.400;2023-08-21T11:27:42;28.70;61.90
74511;DHT22;62991;50.040;18.400;2023-08-21T11:30:43;28.60;62.20
74511;DHT22;62991;50.040;18.400;2023-08-21T11:33:52;28.40;62.60
74511;DHT22;62991;50.040;18.400;2023-08-21T11:36:53;28.60;62.40
74511;DHT22;62991;50.040;18.400;2023-08-21T11:39:58;28.80;61.70
74511;DHT22;62991;50.040;18.400;2023-08-21T11:43:02;28.90;61.60
74511;DHT22;62991;50.040;18.400;2023-08-21T11:46:05;29.00;61.90
74511;DHT22;62991;50.040;18.400;2023-08-21T11:49:06;29.40;60.90
74511;DHT22;62991;50.040;18.400;2023-08-21T11:52:07;29.50;60.30
74511;DHT22;62991;50.040;18.400;2023-08-21T11:55:09;29.30;59.20
74511;DHT22;62991;50.040;18.400;2023-08-21T11:58:11;29.60;59.90
74511;DHT22;62991;50.040;18.400;2023-08-21T12:01:19;30.00;59.50
74511;DHT22;62991;50.040;18.400;2023-08-21T12:04:20;30.00;58.40
74511;DHT22;62991;50.040;18.400;2023-08-21T12:07:21;29.90;60.00
74511;DHT22;62991;50.040;18.400;2023-08-21T12:10:28;29.80;59.40
74511;DHT22;62991;50.040;18.400;2023-08-21T12:13:30;29.80;60.40
74511;DHT22;62991;50.040;18.400;2023-08-21T12:16:31;30.00;60.30
74511;DHT22;62991;50.040;18.400;2023-08-21T12:19:31;30.20;59.90
74511;DHT22;62991;50.040;18.400;2023-08-21T12:22:32;30.30;58.80
74511;DHT22;62991;50.040;18.400;2023-08-21T12:25:33;30.30;58.10
74511;DHT22;62991;50.040;18.400;2023-08-21T12:28:33;30.50;58.00
74511;DHT22;62991;50.040;18.400;2023-08-21T12:31:34;30.50;56.40
74511;DHT22;62991;50.040;18.400;2023-08-21T12:34:35;30.60;57.40
74511;DHT22;62991;50.040;18.400;2023-08-21T12:37:35;30.80;56.80
74511;DHT22;62991;50.040;18.400;2023-08-21T12:40:37;30.90;55.60
74511;DHT22;62991;50.040;18.400;2023-08-21T12:43:38;31.10;56.50
74511;DHT22;62991;50.040;18.400;2023-08-21T12:46:38;31.20;56.10
74511;DHT22;62991;50.040;18.400;2023-08-21T12:49:39;31.40;55.80
74511;DHT22;62991;50.040;18.400;2023-08-21T12:52:40;31.50;54.00
74511;DHT22;62991;50.040;18.400;2023-08-21T12:55:41;31.50;54.10
74511;DHT22;62991;50.040;18.400;2023-08-21T12:58:43;31.60;54.30
74511;DHT22;62991;50.040;18.400;2023-08-21T13:01:43;31.90;53.50
74511;DHT22;62991;50.040;18.400;2023-08-21T13:04:44;32.00;53.60
74511;DHT22;62991;50.040;18.400;2023-08-21T13:07:44;32.30;53.80
74511;DHT22;62991;50.040;18.400;2023-08-21T13:10:45;32.60;52.00
74511;DHT22;62991;50.040;18.400;2023-08-21T13:13:46;32.50;50.20
74511;DHT22;62991;50.040;18.400;2023-08-21T13:16:46;32.70;51.20
74511;DHT22;62991;50.040;18.400;2023-08-21T13:19:47;33.10;51.30
74511;DHT22;62991;50.040;18.400;2023-08-21T13:22:49;33.10;50.20
74511;DHT22;62991;50.040;18.400;2023-08-21T13:25:51;33.30;49.30
74511;DHT22;62991;50.040;18.400;2023-08-21T13:28:52;33.20;50.90
74511;DHT22;62991;50.040;18.400;2023-08-21T13:31:52;33.80;50.10
74511;DHT22;62991;50.040;18.400;2023-08-21T13:34:53;33.50;48.10
74511;DHT22;62991;50.040;18.400;2023-08-21T13:37:53;33.70;49.30
74511;DHT22;62991;50.040;18.400;2023-08-21T13:40:54;33.90;50.20
74511;DHT22;62991;50.040;18.400;2023-08-21T13:43:55;33.90;48.10
74511;DHT22;62991;50.040;18.400;2023-08-21T13:46:55;33.90;49.10
74511;DHT22;62991;50.040;18.400;2023-08-21T13:49:56;34.30;50.20
74511;DHT22;62991;50.040;18.400;2023-08-21T13:52:57;34.90;47.50
74511;DHT22;62991;50.040;18.400;2023-08-21T13:55:58;36.60;45.00
74511;DHT22;62991;50.040;18.400;2023-08-21T13:58:59;39.10;41.40
74511;DHT22;62991;50.040;18.400;2023-08-21T14:01:59;41.10;39.50
74511;DHT22;62991;50.040;18.400;2023-08-21T14:05:01;42.60;37.70
74511;DHT22;62991;50.040;18.400;2023-08-21T14:08:03;43.50;36.40
74511;DHT22;62991;50.040;18.400;2023-08-21T14:11:04;43.30;37.30
74511;DHT22;62991;50.040;18.400;2023-08-21T14:14:04;43.90;36.20
74511;DHT22;62991;50.040;18.400;2023-08-21T14:17:05;44.10;36.80
74511;DHT22;62991;50.040;18.400;2023-08-21T14:20:06;45.20;35.90
74511;DHT22;62991;50.040;18.400;2023-08-21T14:23:10;45.90;35.40
74511;DHT22;62991;50.040;18.400;2023-08-21T14:26:11;46.60;34.70
74511;DHT22;62991;50.040;18.400;2023-08-21T14:29:11;46.90;34.10
74511;DHT22;62991;50.040;18.400;2023-08-21T14:32:13;45.10;35.70
74511;DHT22;62991;50.040;18.400;2023-08-21T14:35:13;44.60;36.00
74511;DHT22;62991;50.040;18.400;2023-08-21T14:38:14;42.90;37.20
74511;DHT22;62991;50.040;18.400;2023-08-21T14:41:15;41.20;38.70
74511;DHT22;62991;50.040;18.400;2023-08-21T14:44:15;41.10;39.70
74511;DHT22;62991;50.040;18.400;2023-08-21T14:47:16;39.70;40.70
74511;DHT22;62991;50.040;18.400;2023-08-21T14:50:16;37.90;43.40
74511;DHT22;62991;50.040;18.400;2023-08-21T14:53:17;37.00;45.80
74511;DHT22;62991;50.040;18.400;2023-08-21T14:56:18;36.20;46.10
74511;DHT22;62991;50.040;18.400;2023-08-21T14:59:19;35.30;47.00
74511;DHT22;62991;50.040;18.400;2023-08-21T15:02:20;34.60;48.60
74511;DHT22;62991;50.040;18.400;2023-08-21T15:05:20;34.10;49.20
74511;DHT22;62991;50.040;18.400;2023-08-21T15:08:22;33.70;49.70
74511;DHT22;62991;50.040;18.400;2023-08-21T15:11:22;33.40;50.70
74511;DHT22;62991;50.040;18.400;2023-08-21T15:14:23;33.00;51.10
74511;DHT22;62991;50.040;18.400;2023-08-21T15:17:24;32.90;52.40
74511;DHT22;62991;50.040;18.400;2023-08-21T15:20:24;32.60;52.80
74511;DHT22;62991;50.040;18.400;2023-08-21T15:23:25;32.60;52.10
74511;DHT22;62991;50.040;18.400;2023-08-21T15:26:26;32.40;53.30
74511;DHT22;62991;50.040;18.400;2023-08-21T15:29:26;32.30;52.40
74511;DHT22;62991;50.040;18.400;2023-08-21T15:32:27;31.70;54.00
74511;DHT22;62991;50.040;18.400;2023-08-21T15:35:28;31.40;56.50
74511;DHT22;62991;50.040;18.400;2023-08-21T15:38:28;30.70;59.20
74511;DHT22;62991;50.040;18.400;2023-08-21T15:41:29;30.10;61.20
74511;DHT22;62991;50.040;18.400;2023-08-21T15:44:29;29.60;63.40
74511;DHT22;62991;50.040;18.400;2023-08-21T15:47:30;29.30;64.10
74511;DHT22;62991;50.040;18.400;2023-08-21T15:50:31;29.10;64.80
74511;DHT22;62991;50.040;18.400;2023-08-21T15:53:32;29.00;64.70
74511;DHT22;62991;50.040;18.400;2023-08-21T15:56:32;29.30;64.10
74511;DHT22;62991;50.040;18.400;2023-08-21T15:59:33;29.60;63.00
74511;DHT22;62991;50.040;18.400;2023-08-21T16:02:34;29.90;63.20
74511;DHT22;62991;50.040;18.400;2023-08-21T16:05:35;30.00;61.80
74511;DHT22;62991;50.040;18.400;2023-08-21T16:08:36;30.30;62.00
74511;DHT22;62991;50.040;18.400;2023-08-21T16:11:37;30.20;62.10
74511;DHT22;62991;50.040;18.400;2023-08-21T16:14:38;30.30;61.10
74511;DHT22;62991;50.040;18.400;2023-08-21T16:17:38;30.20;62.20
74511;DHT22;62991;50.040;18.400;2023-08-21T16:20:39;30.10;63.60
74511;DHT22;62991;50.040;18.400;2023-08-21T16:23:40;30.10;62.90
74511;DHT22;62991;50.040;18.400;2023-08-21T16:26:40;30.20;62.80
74511;DHT22;62991;50.040;18.400;2023-08-21T16:29:41;29.90;63.00
74511;DHT22;62991;50.040;18.400;2023-08-21T16:32:42;29.60;63.70
74511;DHT22;62991;50.040;18.400;2023-08-21T16:35:42;29.40;64.40
74511;DHT22;62991;50.040;18.400;2023-08-21T16:38:43;29.30;64.70
74511;DHT22;62991;50.040;18.400;2023-08-21T16:41:43;29.10;65.10
74511;DHT22;62991;50.040;18.400;2023-08-21T16:44:44;29.30;65.30
74511;DHT22;62991;50.040;18.400;2023-08-21T16:47:45;29.60;64.40
74511;DHT22;62991;50.040;18.400;2023-08-21T16:50:49;29.70;64.40
74511;DHT22;62991;50.040;18.400;2023-08-21T16:53:50;29.70;64.30
74511;DHT22;62991;50.040;18.400;2023-08-21T16:56:50;29.70;64.80
74511;DHT22;62991;50.040;18.400;2023-08-21T16:59:51;29.70;65.00
74511;DHT22;62991;50.040;18.400;2023-08-21T17:02:52;29.70;64.40
74511;DHT22;62991;50.040;18.400;2023-08-21T17:05:52;29.60;64.50
74511;DHT22;62991;50.040;18.400;2023-08-21T17:08:53;29.60;65.00
74511;DHT22;62991;50.040;18.400;2023-08-21T17:11:54;29.50;64.50
74511;DHT22;62991;50.040;18.400;2023-08-21T17:14:54;29.50;64.90
74511;DHT22;62991;50.040;18.400;2023-08-21T17:17:56;29.40;65.20
74511;DHT22;62991;50.040;18.400;2023-08-21T17:20:56;29.30;65.00
74511;DHT22;62991;50.040;18.400;2023-08-21T17:23:57;29.10;64.60
74511;DHT22;62991;50.040;18.400;2023-08-21T17:26:58;28.70;65.90
74511;DHT22;62991;50.040;18.400;2023-08-21T17:29:58;28.50;66.40
74511;DHT22;62991;50.040;18.400;2023-08-21T17:32:59;28.20;67.50
74511;DHT22;62991;50.040;18.400;2023-08-21T17:36:00;28.10;67.50
74511;DHT22;62991;50.040;18.400;2023-08-21T17:39:01;28.00;67.90
74511;DHT22;62991;50.040;18.400;2023-08-21T17:42:03;27.90;68.30
74511;DHT22;62991;50.040;18.400;2023-08-21T17:45:03;27.70;68.10
74511;DHT22;62991;50.040;18.400;2023-08-21T17:48:05;27.60;68.10
74511;DHT22;62991;50.040;18.400;2023-08-21T17:51:05;27.50;68.80
74511;DHT22;62991;50.040;18.400;2023-08-21T17:54:06;27.20;69.10
74511;DHT22;62991;50.040;18.400;2023-08-21T17:57:07;27.00;69.70
74511;DHT22;62991;50.040;18.400;2023-08-21T18:00:08;26.80;69.90
74511;DHT22;62991;50.040;18.400;2023-08-21T18:03:10;26.70;70.00
74511;DHT22;62991;50.040;18.400;2023-08-21T18:06:10;26.70;70.20
74511;DHT22;62991;50.040;18.400;2023-08-21T18:09:11;26.80;69.90
74511;DHT22;62991;50.040;18.400;2023-08-21T18:12:12;26.80;69.70
74511;DHT22;62991;50.040;18.400;2023-08-21T18:15:13;26.80;69.60
74511;DHT22;62991;50.040;18.400;2023-08-21T18:18:14;26.70;69.90
74511;DHT22;62991;50.040;18.400;2023-08-21T18:21:15;26.80;69.50
74511;DHT22;62991;50.040;18.400;2023-08-21T18:24:15;26.70;70.00
74511;DHT22;62991;50.040;18.400;2023-08-21T18:27:16;26.60;69.80
74511;DHT22;62991;50.040;18.400;2023-08-21T18:30:18;26.60;69.70
74511;DHT22;62991;50.040;18.400;2023-08-21T18:33:19;26.60;69.60
74511;DHT22;62991;50.040;18.400;2023-08-21T18:36:20;26.80;69.10
74511;DHT22;62991;50.040;18.400;2023-08-21T18:39:21;26.80;68.90
74511;DHT22;62991;50.040;18.400;2023-08-21T18:42:22;26.70;69.10
74511;DHT22;62991;50.040;18.400;2023-08-21T18:45:23;26.80;68.80
74511;DHT22;62991;50.040;18.400;2023-08-21T18:48:23;26.90;68.80